sensor_id;sensor_type;location;lat;lon;timestamp;pressure;altitude;pressure_sealevel;temperature;humidity
21980;BME280;11154;48.558;9.234;2023-04-15T00:01:36;96554.34;;;10.96;54.74
21980;BME280;11154;48.558;9.234;2023-04-15T00:03:38;96551.94;;;11.01;53.81
21980;BME280;11154;48.558;9.234;2023-04-15T00:05:40;96545.41;;;11.03;52.91
21980;BME280;11154;48.558;9.234;2023-04-15T00:07:42;96555.84;;;11.05;53.53
21980;BME280;11154;48.558;9.234;2023-04-15T00:09:46;96554.41;;;11.02;53.41
21980;BME280;11154;48.558;9.234;2023-04-15T00:11:49;96552.50;;;10.96;54.03
21980;BME280;11154;48.558;9.234;2023-04-15T00:13:51;96552.44;;;10.90;53.17
21980;BME280;11154;48.558;9.234;2023-04-15T00:15:52;96554.34;;;10.81;53.23
21980;BME280;11154;48.558;9.234;2023-04-15T00:17:54;96562.47;;;10.74;53.54
21980;BME280;11154;48.558;9.234;2023-04-15T00:19:55;96556.22;;;10.67;54.59
21980;BME280;11154;48.558;9.234;2023-04-15T00:21:59;96565.56;;;10.63;55.08
21980;BME280;11154;48.558;9.234;2023-04-15T00:24:01;96555.78;;;10.63;54.82
21980;BME280;11154;48.558;9.234;2023-04-15T00:26:04;96562.91;;;10.63;54.82
21980;BME280;11154;48.558;9.234;2023-04-15T00:28:06;96562.09;;;10.62;54.35
21980;BME280;11154;48.558;9.234;2023-04-15T00:30:09;96554.31;;;10.61;54.17
21980;BME280;11154;48.558;9.234;2023-04-15T00:32:11;96553.41;;;10.54;53.87
21980;BME280;11154;48.558;9.234;2023-04-15T00:34:13;96553.31;;;10.47;53.90
21980;BME280;11154;48.558;9.234;2023-04-15T00:36:14;96548.53;;;10.43;54.00
21980;BME280;11154;48.558;9.234;2023-04-15T00:38:16;96543.69;;;10.32;54.44
21980;BME280;11154;48.558;9.234;2023-04-15T00:40:18;96551.47;;;10.33;54.77
21980;BME280;11154;48.558;9.234;2023-04-15T00:42:23;96541.88;;;10.32;55.07
21980;BME280;11154;48.558;9.234;2023-04-15T00:44:25;96550.84;;;10.31;55.75
21980;BME280;11154;48.558;9.234;2023-04-15T00:46:28;96550.19;;;10.29;56.78
21980;BME280;11154;48.558;9.234;2023-04-15T00:48:31;96551.84;;;10.30;56.50
21980;BME280;11154;48.558;9.234;2023-04-15T00:50:33;96549.00;;;10.32;56.24
21980;BME280;11154;48.558;9.234;2023-04-15T00:52:35;96555.22;;;10.39;58.99
21980;BME280;11154;48.558;9.234;2023-04-15T00:54:37;96555.03;;;10.40;60.74
21980;BME280;11154;48.558;9.234;2023-04-15T00:56:38;96549.09;;;10.38;57.41
21980;BME280;11154;48.558;9.234;2023-04-15T00:58:41;96552.97;;;10.36;55.73
21980;BME280;11154;48.558;9.234;2023-04-15T01:00:43;96561.28;;;10.33;55.64
21980;BME280;11154;48.558;9.234;2023-04-15T01:02:46;96556.97;;;10.32;55.31
21980;BME280;11154;48.558;9.234;2023-04-15T01:04:47;96550.47;;;10.34;55.44
21980;BME280;11154;48.558;9.234;2023-04-15T01:06:49;96552.78;;;10.37;54.25
21980;BME280;11154;48.558;9.234;2023-04-15T01:08:51;96553.31;;;10.33;54.41
21980;BME280;11154;48.558;9.234;2023-04-15T01:10:53;96553.78;;;10.36;54.63
21980;BME280;11154;48.558;9.234;2023-04-15T01:12:56;96561.34;;;10.39;54.91
21980;BME280;11154;48.558;9.234;2023-04-15T01:14:59;96545.81;;;10.36;55.69
21980;BME280;11154;48.558;9.234;2023-04-15T01:17:02;96552.50;;;10.32;55.55
21980;BME280;11154;48.558;9.234;2023-04-15T01:19:04;96555.25;;;10.24;55.33
21980;BME280;11154;48.558;9.234;2023-04-15T01:21:06;96552.13;;;10.21;56.70
21980;BME280;11154;48.558;9.234;2023-04-15T01:23:08;96554.97;;;10.19;55.96
21980;BME280;11154;48.558;9.234;2023-04-15T01:25:16;96558.25;;;10.21;56.26
21980;BME280;11154;48.558;9.234;2023-04-15T01:27:20;96557.63;;;10.19;56.01
21980;BME280;11154;48.558;9.234;2023-04-15T01:29:21;96562.75;;;10.21;56.77
21980;BME280;11154;48.558;9.234;2023-04-15T01:31:23;96557.44;;;10.21;56.05
21980;BME280;11154;48.558;9.234;2023-04-15T01:33:25;96555.78;;;10.20;56.34
21980;BME280;11154;48.558;9.234;2023-04-15T01:35:27;96560.44;;;10.18;56.06
21980;BME280;11154;48.558;9.234;2023-04-15T01:37:28;96555.50;;;10.15;56.43
21980;BME280;11154;48.558;9.234;2023-04-15T01:39:30;96555.78;;;10.06;57.40
21980;BME280;11154;48.558;9.234;2023-04-15T01:41:32;96555.97;;;10.04;57.22
21980;BME280;11154;48.558;9.234;2023-04-15T01:43:35;96555.84;;;9.98;57.25
21980;BME280;11154;48.558;9.234;2023-04-15T01:45:37;96556.66;;;9.98;58.27
21980;BME280;11154;48.558;9.234;2023-04-15T01:47:39;96560.47;;;9.96;58.71
21980;BME280;11154;48.558;9.234;2023-04-15T01:49:40;96552.44;;;9.89;60.07
21980;BME280;11154;48.558;9.234;2023-04-15T01:51:42;96555.72;;;9.91;60.28
21980;BME280;11154;48.558;9.234;2023-04-15T01:53:44;96560.19;;;9.91;59.52
21980;BME280;11154;48.558;9.234;2023-04-15T01:55:45;96553.69;;;9.93;59.41
21980;BME280;11154;48.558;9.234;2023-04-15T01:57:47;96552.03;;;9.92;59.54
21980;BME280;11154;48.558;9.234;2023-04-15T01:59:50;96554.53;;;9.94;58.77
21980;BME280;11154;48.558;9.234;2023-04-15T02:01:52;96551.25;;;9.92;59.75
21980;BME280;11154;48.558;9.234;2023-04-15T02:03:54;96554.69;;;9.92;58.94
21980;BME280;11154;48.558;9.234;2023-04-15T02:05:56;96553.88;;;9.92;58.90
21980;BME280;11154;48.558;9.234;2023-04-15T02:07:57;96543.47;;;9.90;58.52
21980;BME280;11154;48.558;9.234;2023-04-15T02:09:59;96548.38;;;9.93;58.74
21980;BME280;11154;48.558;9.234;2023-04-15T02:12:01;96544.41;;;9.97;58.07
21980;BME280;11154;48.558;9.234;2023-04-15T02:14:02;96549.53;;;9.99;58.39
21980;BME280;11154;48.558;9.234;2023-04-15T02:16:14;96543.03;;;10.01;58.07
21980;BME280;11154;48.558;9.234;2023-04-15T02:18:16;96545.69;;;10.01;58.01
21980;BME280;11154;48.558;9.234;2023-04-15T02:20:18;96543.69;;;10.03;57.83
21980;BME280;11154;48.558;9.234;2023-04-15T02:22:21;96549.00;;;10.03;57.01
21980;BME280;11154;48.558;9.234;2023-04-15T02:24:23;96542.84;;;10.03;56.64
21980;BME280;11154;48.558;9.234;2023-04-15T02:26:24;96539.56;;;10.01;56.44
21980;BME280;11154;48.558;9.234;2023-04-15T02:28:26;96532.59;;;10.00;56.52
21980;BME280;11154;48.558;9.234;2023-04-15T02:30:28;96539.09;;;9.97;57.03
21980;BME280;11154;48.558;9.234;2023-04-15T02:32:31;96537.16;;;9.91;57.37
21980;BME280;11154;48.558;9.234;2023-04-15T02:34:32;96533.56;;;9.84;56.71
21980;BME280;11154;48.558;9.234;2023-04-15T02:36:34;96540.06;;;9.82;57.43
21980;BME280;11154;48.558;9.234;2023-04-15T02:38:36;96528.53;;;9.75;57.60
21980;BME280;11154;48.558;9.234;2023-04-15T02:40:39;96533.34;;;9.71;58.47
21980;BME280;11154;48.558;9.234;2023-04-15T02:42:41;96542.31;;;9.70;58.58
21980;BME280;11154;48.558;9.234;2023-04-15T02:44:43;96541.31;;;9.71;59.22
21980;BME280;11154;48.558;9.234;2023-04-15T02:46:45;96539.84;;;9.69;59.67
21980;BME280;11154;48.558;9.234;2023-04-15T02:48:51;96546.69;;;9.63;59.24
21980;BME280;11154;48.558;9.234;2023-04-15T02:50:53;96539.72;;;9.62;59.30
21980;BME280;11154;48.558;9.234;2023-04-15T02:53:11;96547.03;;;9.60;59.69
21980;BME280;11154;48.558;9.234;2023-04-15T02:55:13;96540.81;;;9.53;59.47
21980;BME280;11154;48.558;9.234;2023-04-15T02:57:17;96544.28;;;9.54;59.62
21980;BME280;11154;48.558;9.234;2023-04-15T02:59:18;96543.63;;;9.52;59.98
21980;BME280;11154;48.558;9.234;2023-04-15T03:01:20;96542.63;;;9.53;60.11
21980;BME280;11154;48.558;9.234;2023-04-15T03:03:21;96548.13;;;9.51;59.98
21980;BME280;11154;48.558;9.234;2023-04-15T03:05:25;96555.09;;;9.52;60.04
21980;BME280;11154;48.558;9.234;2023-04-15T03:07:26;96549.78;;;9.52;60.08
21980;BME280;11154;48.558;9.234;2023-04-15T03:09:28;96553.25;;;9.53;60.19
21980;BME280;11154;48.558;9.234;2023-04-15T03:11:30;96554.25;;;9.52;59.93
21980;BME280;11154;48.558;9.234;2023-04-15T03:13:32;96550.97;;;9.50;59.91
21980;BME280;11154;48.558;9.234;2023-04-15T03:15:34;96557.28;;;9.49;59.49
21980;BME280;11154;48.558;9.234;2023-04-15T03:17:36;96551.31;;;9.47;59.75
21980;BME280;11154;48.558;9.234;2023-04-15T03:19:38;96547.19;;;9.44;59.42
21980;BME280;11154;48.558;9.234;2023-04-15T03:21:41;96547.19;;;9.44;59.77
21980;BME280;11154;48.558;9.234;2023-04-15T03:23:42;96544.25;;;9.39;59.78
21980;BME280;11154;48.558;9.234;2023-04-15T03:25:44;96548.09;;;9.37;60.37
21980;BME280;11154;48.558;9.234;2023-04-15T03:27:46;96535.97;;;9.34;60.50
21980;BME280;11154;48.558;9.234;2023-04-15T03:29:48;96542.22;;;9.41;60.16
21980;BME280;11154;48.558;9.234;2023-04-15T03:31:51;96548.84;;;9.45;59.62
21980;BME280;11154;48.558;9.234;2023-04-15T03:33:52;96539.03;;;9.46;58.36
21980;BME280;11154;48.558;9.234;2023-04-15T03:35:54;96552.13;;;9.47;57.76
21980;BME280;11154;48.558;9.234;2023-04-15T03:37:57;96544.81;;;9.49;58.00
21980;BME280;11154;48.558;9.234;2023-04-15T03:39:59;96543.16;;;9.48;57.67
21980;BME280;11154;48.558;9.234;2023-04-15T03:42:00;96543.53;;;9.45;57.91
21980;BME280;11154;48.558;9.234;2023-04-15T03:44:02;96546.53;;;9.42;58.70
21980;BME280;11154;48.558;9.234;2023-04-15T03:46:04;96545.44;;;9.37;58.11
21980;BME280;11154;48.558;9.234;2023-04-15T03:48:06;96535.63;;;9.37;59.41
21980;BME280;11154;48.558;9.234;2023-04-15T03:50:07;96540.66;;;9.32;58.74
21980;BME280;11154;48.558;9.234;2023-04-15T03:52:09;96544.13;;;9.33;59.38
21980;BME280;11154;48.558;9.234;2023-04-15T03:54:12;96540.28;;;9.35;59.14
21980;BME280;11154;48.558;9.234;2023-04-15T03:56:14;96545.91;;;9.40;59.74
21980;BME280;11154;48.558;9.234;2023-04-15T03:58:16;96545.34;;;9.45;59.39
21980;BME280;11154;48.558;9.234;2023-04-15T04:00:18;96544.06;;;9.41;59.01
21980;BME280;11154;48.558;9.234;2023-04-15T04:02:20;96553.03;;;9.40;59.25
21980;BME280;11154;48.558;9.234;2023-04-15T04:04:22;96551.38;;;9.39;59.74
21980;BME280;11154;48.558;9.234;2023-04-15T04:06:24;96546.25;;;9.37;59.13
21980;BME280;11154;48.558;9.234;2023-04-15T04:08:25;96552.38;;;9.38;60.10
21980;BME280;11154;48.558;9.234;2023-04-15T04:10:28;96545.91;;;9.40;60.03
21980;BME280;11154;48.558;9.234;2023-04-15T04:12:30;96550.56;;;9.38;58.73
21980;BME280;11154;48.558;9.234;2023-04-15T04:14:32;96546.97;;;9.32;58.98
21980;BME280;11154;48.558;9.234;2023-04-15T04:16:33;96550.97;;;9.28;59.21
21980;BME280;11154;48.558;9.234;2023-04-15T04:18:35;96552.31;;;9.24;58.83
21980;BME280;11154;48.558;9.234;2023-04-15T04:20:37;96557.00;;;9.22;59.20
21980;BME280;11154;48.558;9.234;2023-04-15T04:22:39;96556.84;;;9.15;59.27
21980;BME280;11154;48.558;9.234;2023-04-15T04:24:40;96566.19;;;9.11;58.88
21980;BME280;11154;48.558;9.234;2023-04-15T04:26:43;96559.22;;;9.10;58.72
21980;BME280;11154;48.558;9.234;2023-04-15T04:28:45;96560.41;;;9.08;58.34
21980;BME280;11154;48.558;9.234;2023-04-15T04:30:47;96566.69;;;9.07;58.02
21980;BME280;11154;48.558;9.234;2023-04-15T04:32:48;96569.34;;;9.07;57.96
21980;BME280;11154;48.558;9.234;2023-04-15T04:34:50;96569.88;;;9.02;57.80
21980;BME280;11154;48.558;9.234;2023-04-15T04:36:52;96570.88;;;9.01;58.00
21980;BME280;11154;48.558;9.234;2023-04-15T04:38:53;96570.06;;;9.01;58.20
21980;BME280;11154;48.558;9.234;2023-04-15T04:40:55;96571.22;;;8.98;58.33
21980;BME280;11154;48.558;9.234;2023-04-15T04:42:58;96565.94;;;8.98;57.71
21980;BME280;11154;48.558;9.234;2023-04-15T04:45:00;96564.28;;;8.97;57.44
21980;BME280;11154;48.558;9.234;2023-04-15T04:47:02;96565.44;;;8.95;57.35
21980;BME280;11154;48.558;9.234;2023-04-15T04:49:03;96567.59;;;8.99;57.65
21980;BME280;11154;48.558;9.234;2023-04-15T04:51:05;96564.56;;;9.02;57.17
21980;BME280;11154;48.558;9.234;2023-04-15T04:53:07;96567.03;;;9.04;57.33
21980;BME280;11154;48.558;9.234;2023-04-15T04:55:08;96571.81;;;9.08;56.74
21980;BME280;11154;48.558;9.234;2023-04-15T04:57:10;96572.09;;;9.13;57.66
21980;BME280;11154;48.558;9.234;2023-04-15T04:59:14;96568.88;;;9.26;61.03
21980;BME280;11154;48.558;9.234;2023-04-15T05:01:16;96571.88;;;9.23;58.28
21980;BME280;11154;48.558;9.234;2023-04-15T05:03:17;96574.91;;;9.20;58.12
21980;BME280;11154;48.558;9.234;2023-04-15T05:05:19;96575.94;;;9.11;56.97
21980;BME280;11154;48.558;9.234;2023-04-15T05:07:21;96574.66;;;9.07;57.23
21980;BME280;11154;48.558;9.234;2023-04-15T05:09:22;96577.16;;;9.00;57.38
21980;BME280;11154;48.558;9.234;2023-04-15T05:11:24;96577.06;;;8.94;57.59
21980;BME280;11154;48.558;9.234;2023-04-15T05:13:26;96581.06;;;8.90;57.91
21980;BME280;11154;48.558;9.234;2023-04-15T05:15:29;96589.03;;;8.82;58.52
21980;BME280;11154;48.558;9.234;2023-04-15T05:17:31;96578.59;;;8.80;59.30
21980;BME280;11154;48.558;9.234;2023-04-15T05:19:34;96586.09;;;8.77;58.39
21980;BME280;11154;48.558;9.234;2023-04-15T05:21:36;96587.09;;;8.76;58.29
21980;BME280;11154;48.558;9.234;2023-04-15T05:23:37;96576.81;;;8.73;58.55
21980;BME280;11154;48.558;9.234;2023-04-15T05:25:39;96582.13;;;8.73;59.27
21980;BME280;11154;48.558;9.234;2023-04-15T05:27:41;96583.97;;;8.72;58.98
21980;BME280;11154;48.558;9.234;2023-04-15T05:29:43;96589.88;;;8.74;59.08
21980;BME280;11154;48.558;9.234;2023-04-15T05:31:45;96593.03;;;8.78;59.58
21980;BME280;11154;48.558;9.234;2023-04-15T05:33:47;96588.75;;;8.77;59.73
21980;BME280;11154;48.558;9.234;2023-04-15T05:35:49;96584.56;;;8.82;59.78
21980;BME280;11154;48.558;9.234;2023-04-15T05:37:50;96593.66;;;8.88;59.53
21980;BME280;11154;48.558;9.234;2023-04-15T05:39:52;96593.13;;;8.92;59.06
21980;BME280;11154;48.558;9.234;2023-04-15T05:41:54;96586.28;;;8.98;60.21
21980;BME280;11154;48.558;9.234;2023-04-15T05:43:56;96588.59;;;9.01;59.70
21980;BME280;11154;48.558;9.234;2023-04-15T05:45:58;96589.25;;;9.03;60.09
21980;BME280;11154;48.558;9.234;2023-04-15T05:48:01;96584.88;;;9.10;61.99
21980;BME280;11154;48.558;9.234;2023-04-15T05:50:04;96593.97;;;9.15;61.33
21980;BME280;11154;48.558;9.234;2023-04-15T05:52:05;96591.09;;;9.25;62.24
21980;BME280;11154;48.558;9.234;2023-04-15T05:54:07;96593.75;;;9.25;61.57
21980;BME280;11154;48.558;9.234;2023-04-15T05:56:09;96591.75;;;9.27;61.10
21980;BME280;11154;48.558;9.234;2023-04-15T05:58:10;96592.25;;;9.30;60.38
21980;BME280;11154;48.558;9.234;2023-04-15T06:00:13;96585.69;;;9.40;59.86
21980;BME280;11154;48.558;9.234;2023-04-15T06:02:15;96593.41;;;9.50;59.36
21980;BME280;11154;48.558;9.234;2023-04-15T06:04:18;96585.56;;;9.56;59.25
21980;BME280;11154;48.558;9.234;2023-04-15T06:06:20;96585.50;;;9.64;58.99
21980;BME280;11154;48.558;9.234;2023-04-15T06:08:21;96598.41;;;9.67;59.27
21980;BME280;11154;48.558;9.234;2023-04-15T06:10:23;96594.69;;;9.76;58.76
21980;BME280;11154;48.558;9.234;2023-04-15T06:12:25;96596.63;;;9.82;58.44
21980;BME280;11154;48.558;9.234;2023-04-15T06:14:27;96595.63;;;9.83;59.50
21980;BME280;11154;48.558;9.234;2023-04-15T06:16:29;96585.28;;;9.88;59.29
21980;BME280;11154;48.558;9.234;2023-04-15T06:18:31;96587.84;;;10.04;60.60
21980;BME280;11154;48.558;9.234;2023-04-15T06:20:34;96581.69;;;10.04;60.94
21980;BME280;11154;48.558;9.234;2023-04-15T06:22:36;96589.19;;;10.00;61.25
21980;BME280;11154;48.558;9.234;2023-04-15T06:24:38;96591.13;;;10.06;61.07
21980;BME280;11154;48.558;9.234;2023-04-15T06:26:40;96587.47;;;10.07;61.32
21980;BME280;11154;48.558;9.234;2023-04-15T06:28:42;96592.16;;;10.19;61.74
21980;BME280;11154;48.558;9.234;2023-04-15T06:30:43;96594.44;;;10.37;62.64
21980;BME280;11154;48.558;9.234;2023-04-15T06:32:45;96595.09;;;10.24;61.08
21980;BME280;11154;48.558;9.234;2023-04-15T06:34:47;96594.56;;;10.29;60.35
21980;BME280;11154;48.558;9.234;2023-04-15T06:36:51;96594.63;;;10.35;61.63
21980;BME280;11154;48.558;9.234;2023-04-15T06:38:53;96598.13;;;10.36;61.75
21980;BME280;11154;48.558;9.234;2023-04-15T06:40:55;96589.41;;;10.27;61.50
21980;BME280;11154;48.558;9.234;2023-04-15T06:42:57;96603.97;;;10.17;62.10
21980;BME280;11154;48.558;9.234;2023-04-15T06:44:59;96606.06;;;10.21;62.56
21980;BME280;11154;48.558;9.234;2023-04-15T06:47:00;96598.19;;;10.13;62.99
21980;BME280;11154;48.558;9.234;2023-04-15T06:49:02;96606.31;;;10.12;62.88
21980;BME280;11154;48.558;9.234;2023-04-15T06:51:04;96602.66;;;10.13;63.18
21980;BME280;11154;48.558;9.234;2023-04-15T06:53:07;96599.19;;;10.12;63.53
21980;BME280;11154;48.558;9.234;2023-04-15T06:55:09;96605.59;;;10.18;65.08
21980;BME280;11154;48.558;9.234;2023-04-15T06:57:11;96600.59;;;10.23;64.35
21980;BME280;11154;48.558;9.234;2023-04-15T06:59:12;96606.53;;;10.25;65.30
21980;BME280;11154;48.558;9.234;2023-04-15T07:01:14;96605.78;;;10.31;64.73
21980;BME280;11154;48.558;9.234;2023-04-15T07:03:16;96604.72;;;10.40;64.89
21980;BME280;11154;48.558;9.234;2023-04-15T07:05:18;96602.31;;;10.45;64.45
21980;BME280;11154;48.558;9.234;2023-04-15T07:07:20;96613.53;;;10.55;65.39
21980;BME280;11154;48.558;9.234;2023-04-15T07:09:23;96607.47;;;10.61;64.54
21980;BME280;11154;48.558;9.234;2023-04-15T07:11:25;96603.25;;;10.66;64.63
21980;BME280;11154;48.558;9.234;2023-04-15T07:13:29;96607.47;;;10.75;64.29
21980;BME280;11154;48.558;9.234;2023-04-15T07:15:33;96599.94;;;10.78;63.56
21980;BME280;11154;48.558;9.234;2023-04-15T07:17:35;96599.56;;;10.81;63.33
21980;BME280;11154;48.558;9.234;2023-04-15T07:19:36;96596.53;;;10.84;63.14
21980;BME280;11154;48.558;9.234;2023-04-15T07:21:38;96600.47;;;10.88;62.96
21980;BME280;11154;48.558;9.234;2023-04-15T07:23:40;96597.25;;;10.93;63.76
21980;BME280;11154;48.558;9.234;2023-04-15T07:25:43;96595.06;;;10.96;63.15
21980;BME280;11154;48.558;9.234;2023-04-15T07:27:45;96592.66;;;11.01;64.02
21980;BME280;11154;48.558;9.234;2023-04-15T07:29:47;96584.94;;;11.06;63.45
21980;BME280;11154;48.558;9.234;2023-04-15T07:31:50;96594.09;;;11.18;64.26
21980;BME280;11154;48.558;9.234;2023-04-15T07:33:52;96592.31;;;11.25;64.62
21980;BME280;11154;48.558;9.234;2023-04-15T07:35:54;96584.41;;;11.32;63.84
21980;BME280;11154;48.558;9.234;2023-04-15T07:37:55;96578.13;;;11.39;63.15
21980;BME280;11154;48.558;9.234;2023-04-15T07:39:57;96579.66;;;11.48;63.03
21980;BME280;11154;48.558;9.234;2023-04-15T07:42:00;96575.50;;;11.60;64.35
21980;BME280;11154;48.558;9.234;2023-04-15T07:44:02;96579.06;;;11.67;65.03
21980;BME280;11154;48.558;9.234;2023-04-15T07:46:04;96575.50;;;11.81;66.21
21980;BME280;11154;48.558;9.234;2023-04-15T07:48:06;96581.88;;;11.86;64.32
21980;BME280;11154;48.558;9.234;2023-04-15T07:50:08;96573.56;;;11.96;63.85
21980;BME280;11154;48.558;9.234;2023-04-15T07:52:10;96576.66;;;11.99;63.33
21980;BME280;11154;48.558;9.234;2023-04-15T07:54:12;96578.13;;;12.02;62.78
21980;BME280;11154;48.558;9.234;2023-04-15T07:56:14;96576.31;;;12.02;62.68
21980;BME280;11154;48.558;9.234;2023-04-15T07:58:17;96572.22;;;12.06;61.87
21980;BME280;11154;48.558;9.234;2023-04-15T08:00:18;96570.06;;;12.16;62.71
21980;BME280;11154;48.558;9.234;2023-04-15T08:02:20;96574.41;;;12.23;61.65
21980;BME280;11154;48.558;9.234;2023-04-15T08:04:22;96576.06;;;12.24;60.44
21980;BME280;11154;48.558;9.234;2023-04-15T08:06:24;96579.53;;;12.25;60.41
21980;BME280;11154;48.558;9.234;2023-04-15T08:08:26;96571.75;;;12.23;60.38
21980;BME280;11154;48.558;9.234;2023-04-15T08:10:28;96567.84;;;12.26;61.14
21980;BME280;11154;48.558;9.234;2023-04-15T08:12:30;96571.75;;;12.23;61.65
21980;BME280;11154;48.558;9.234;2023-04-15T08:14:34;96572.75;;;12.23;60.94
21980;BME280;11154;48.558;9.234;2023-04-15T08:16:35;96573.41;;;12.24;61.08
21980;BME280;11154;48.558;9.234;2023-04-15T08:18:37;96569.31;;;12.28;60.31
21980;BME280;11154;48.558;9.234;2023-04-15T08:20:39;96564.22;;;12.33;60.39
21980;BME280;11154;48.558;9.234;2023-04-15T08:22:41;96570.38;;;12.34;59.04
21980;BME280;11154;48.558;9.234;2023-04-15T08:24:42;96566.94;;;12.40;59.61
21980;BME280;11154;48.558;9.234;2023-04-15T08:26:44;96566.81;;;12.54;61.97
21980;BME280;11154;48.558;9.234;2023-04-15T08:28:46;96570.53;;;12.60;60.06
21980;BME280;11154;48.558;9.234;2023-04-15T08:30:49;96572.63;;;12.64;59.65
21980;BME280;11154;48.558;9.234;2023-04-15T08:32:50;96571.84;;;12.77;62.14
21980;BME280;11154;48.558;9.234;2023-04-15T08:34:52;96576.47;;;12.89;61.28
21980;BME280;11154;48.558;9.234;2023-04-15T08:36:54;96576.91;;;12.99;59.50
21980;BME280;11154;48.558;9.234;2023-04-15T08:38:55;96575.53;;;13.09;58.30
21980;BME280;11154;48.558;9.234;2023-04-15T08:40:59;96581.13;;;13.21;58.26
21980;BME280;11154;48.558;9.234;2023-04-15T08:43:04;96578.50;;;13.34;58.30
21980;BME280;11154;48.558;9.234;2023-04-15T08:45:08;96580.78;;;13.43;58.70
21980;BME280;11154;48.558;9.234;2023-04-15T08:47:12;96577.28;;;13.56;56.41
21980;BME280;11154;48.558;9.234;2023-04-15T08:49:14;96580.59;;;13.58;56.40
21980;BME280;11154;48.558;9.234;2023-04-15T08:51:18;96577.31;;;13.68;58.07
21980;BME280;11154;48.558;9.234;2023-04-15T08:53:20;96577.94;;;13.70;54.75
21980;BME280;11154;48.558;9.234;2023-04-15T08:55:22;96580.44;;;13.78;56.80
21980;BME280;11154;48.558;9.234;2023-04-15T08:57:25;96581.03;;;13.80;54.84
21980;BME280;11154;48.558;9.234;2023-04-15T08:59:28;96568.28;;;13.89;54.66
21980;BME280;11154;48.558;9.234;2023-04-15T09:01:31;96574.69;;;14.01;56.08
21980;BME280;11154;48.558;9.234;2023-04-15T09:03:34;96566.28;;;14.10;54.86
21980;BME280;11154;48.558;9.234;2023-04-15T09:05:37;96571.63;;;14.17;55.20
21980;BME280;11154;48.558;9.234;2023-04-15T09:07:39;96571.41;;;14.18;55.03
21980;BME280;11154;48.558;9.234;2023-04-15T09:09:40;96572.03;;;14.27;54.00
21980;BME280;11154;48.558;9.234;2023-04-15T09:11:42;96574.06;;;14.38;58.81
21980;BME280;11154;48.558;9.234;2023-04-15T09:13:46;96575.91;;;14.37;53.90
21980;BME280;11154;48.558;9.234;2023-04-15T09:15:48;96572.19;;;14.51;54.43
21980;BME280;11154;48.558;9.234;2023-04-15T09:17:50;96573.84;;;14.58;55.73
21980;BME280;11154;48.558;9.234;2023-04-15T09:20:06;96577.09;;;14.60;53.11
21980;BME280;11154;48.558;9.234;2023-04-15T09:22:08;96584.50;;;14.71;56.13
21980;BME280;11154;48.558;9.234;2023-04-15T09:24:10;96571.31;;;14.70;51.80
21980;BME280;11154;48.558;9.234;2023-04-15T09:26:12;96582.66;;;14.72;50.27
21980;BME280;11154;48.558;9.234;2023-04-15T09:28:23;96584.88;;;14.75;49.54
21980;BME280;11154;48.558;9.234;2023-04-15T09:30:26;96579.53;;;14.75;50.79
21980;BME280;11154;48.558;9.234;2023-04-15T09:32:28;96581.41;;;14.81;52.19
21980;BME280;11154;48.558;9.234;2023-04-15T09:34:34;96588.38;;;14.82;52.03
21980;BME280;11154;48.558;9.234;2023-04-15T09:36:54;96587.13;;;14.91;52.72
21980;BME280;11154;48.558;9.234;2023-04-15T09:38:56;96583.22;;;14.87;51.68
21980;BME280;11154;48.558;9.234;2023-04-15T09:40:59;96584.03;;;14.94;52.36
21980;BME280;11154;48.558;9.234;2023-04-15T09:43:01;96577.56;;;15.08;54.28
21980;BME280;11154;48.558;9.234;2023-04-15T09:45:10;96578.16;;;15.16;51.24
21980;BME280;11154;48.558;9.234;2023-04-15T09:47:26;96575.69;;;15.21;51.04
21980;BME280;11154;48.558;9.234;2023-04-15T09:49:28;96580.19;;;15.33;54.50
21980;BME280;11154;48.558;9.234;2023-04-15T09:51:33;96579.53;;;15.44;50.36
21980;BME280;11154;48.558;9.234;2023-04-15T09:53:44;96575.31;;;15.55;51.81
21980;BME280;11154;48.558;9.234;2023-04-15T09:55:48;96570.16;;;15.60;50.85
21980;BME280;11154;48.558;9.234;2023-04-15T09:57:50;96570.75;;;15.62;47.95
21980;BME280;11154;48.558;9.234;2023-04-15T09:59:51;96572.13;;;15.71;48.35
21980;BME280;11154;48.558;9.234;2023-04-15T10:01:53;96577.91;;;15.74;48.70
21980;BME280;11154;48.558;9.234;2023-04-15T10:03:56;96571.03;;;15.78;48.21
21980;BME280;11154;48.558;9.234;2023-04-15T10:05:59;96577.84;;;15.81;46.60
21980;BME280;11154;48.558;9.234;2023-04-15T10:08:01;96571.41;;;15.88;49.02
21980;BME280;11154;48.558;9.234;2023-04-15T10:10:06;96574.50;;;15.85;46.75
21980;BME280;11154;48.558;9.234;2023-04-15T10:12:09;96575.28;;;15.92;48.55
21980;BME280;11154;48.558;9.234;2023-04-15T10:14:12;96571.69;;;16.04;50.10
21980;BME280;11154;48.558;9.234;2023-04-15T10:16:17;96561.56;;;16.06;48.10
21980;BME280;11154;48.558;9.234;2023-04-15T10:18:20;96567.47;;;16.15;48.82
21980;BME280;11154;48.558;9.234;2023-04-15T10:20:23;96566.91;;;16.06;44.54
21980;BME280;11154;48.558;9.234;2023-04-15T10:22:25;96565.72;;;16.02;45.17
21980;BME280;11154;48.558;9.234;2023-04-15T10:24:29;96565.34;;;15.99;47.35
21980;BME280;11154;48.558;9.234;2023-04-15T10:26:33;96564.13;;;15.95;46.62
21980;BME280;11154;48.558;9.234;2023-04-15T10:28:35;96569.91;;;15.92;46.38
21980;BME280;11154;48.558;9.234;2023-04-15T10:30:37;96567.47;;;15.90;47.99
21980;BME280;11154;48.558;9.234;2023-04-15T10:32:39;96576.78;;;15.88;45.88
21980;BME280;11154;48.558;9.234;2023-04-15T10:34:42;96577.97;;;15.92;48.74
21980;BME280;11154;48.558;9.234;2023-04-15T10:36:44;96576.31;;;15.91;48.28
21980;BME280;11154;48.558;9.234;2023-04-15T10:38:46;96584.59;;;15.89;49.61
21980;BME280;11154;48.558;9.234;2023-04-15T10:40:49;96596.13;;;15.90;50.60
21980;BME280;11154;48.558;9.234;2023-04-15T10:42:53;96589.34;;;15.88;49.17
21980;BME280;11154;48.558;9.234;2023-04-15T10:44:56;96593.50;;;15.84;48.22
21980;BME280;11154;48.558;9.234;2023-04-15T10:46:57;96593.72;;;15.82;48.90
21980;BME280;11154;48.558;9.234;2023-04-15T10:49:06;96597.84;;;15.78;47.38
21980;BME280;11154;48.558;9.234;2023-04-15T10:51:08;96598.88;;;15.77;47.26
21980;BME280;11154;48.558;9.234;2023-04-15T10:53:09;96609.59;;;15.77;47.42